sensor_id;sensor_type;location;lat;lon;timestamp;P1;durP1;ratioP1;P2;durP2;ratioP2
20637;SDS011;10478;49.004;8.470;2022-12-13T00:01:11;44.25;;;17.13;;
20637;SDS011;10478;49.004;8.470;2022-12-13T00:03:40;33.80;;;15.00;;
20637;SDS011;10478;49.004;8.470;2022-12-13T00:06:06;37.05;;;14.70;;
20637;SDS011;10478;49.004;8.470;2022-12-13T00:08:33;40.70;;;15.05;;
20637;SDS011;10478;49.004;8.470;2022-12-13T00:10:59;36.55;;;17.10;;
20637;SDS011;10478;49.004;8.470;2022-12-13T00:13:25;49.67;;;16.77;;
20637;SDS011;10478;49.004;8.470;2022-12-13T00:15:57;32.10;;;14.02;;
20637;SDS011;10478;49.004;8.470;2022-12-13T00:18:24;33.60;;;16.50;;
20637;SDS011;10478;49.004;8.470;2022-12-13T00:20:50;34.63;;;15.63;;
20637;SDS011;10478;49.004;8.470;2022-12-13T00:23:15;32.22;;;14.75;;
20637;SDS011;10478;49.004;8.470;2022-12-13T00:25:41;33.05;;;15.05;;
20637;SDS011;10478;49.004;8.470;2022-12-13T00:28:06;42.97;;;15.45;;
20637;SDS011;10478;49.004;8.470;2022-12-13T00:30:32;37.63;;;15.20;;
20637;SDS011;10478;49.004;8.470;2022-12-13T00:32:58;41.63;;;16.92;;
20637;SDS011;10478;49.004;8.470;2022-12-13T00:35:23;39.17;;;16.05;;
20637;SDS011;10478;49.004;8.470;2022-12-13T00:37:48;45.53;;;17.05;;
20637;SDS011;10478;49.004;8.470;2022-12-13T00:40:14;42.08;;;17.30;;
20637;SDS011;10478;49.004;8.470;2022-12-13T00:42:40;36.75;;;15.98;;
20637;SDS011;10478;49.004;8.470;2022-12-13T00:45:05;34.90;;;14.98;;
20637;SDS011;10478;49.004;8.470;2022-12-13T00:47:31;37.95;;;15.55;;
20637;SDS011;10478;49.004;8.470;2022-12-13T00:49:56;39.67;;;15.30;;
20637;SDS011;10478;49.004;8.470;2022-12-13T00:52:22;36.92;;;14.80;;
20637;SDS011;10478;49.004;8.470;2022-12-13T00:54:47;32.95;;;15.05;;
20637;SDS011;10478;49.004;8.470;2022-12-13T00:57:12;38.60;;;15.77;;
20637;SDS011;10478;49.004;8.470;2022-12-13T00:59:37;34.05;;;14.70;;
20637;SDS011;10478;49.004;8.470;2022-12-13T01:02:03;39.75;;;14.68;;
20637;SDS011;10478;49.004;8.470;2022-12-13T01:04:28;36.50;;;15.98;;
20637;SDS011;10478;49.004;8.470;2022-12-13T01:06:53;41.17;;;17.38;;
20637;SDS011;10478;49.004;8.470;2022-12-13T01:09:21;31.08;;;14.48;;
20637;SDS011;10478;49.004;8.470;2022-12-13T01:11:49;38.55;;;14.18;;
20637;SDS011;10478;49.004;8.470;2022-12-13T01:14:15;36.78;;;16.65;;
20637;SDS011;10478;49.004;8.470;2022-12-13T01:16:41;31.30;;;14.63;;
20637;SDS011;10478;49.004;8.470;2022-12-13T01:19:06;39.72;;;14.50;;
20637;SDS011;10478;49.004;8.470;2022-12-13T01:21:32;35.00;;;15.40;;
20637;SDS011;10478;49.004;8.470;2022-12-13T01:24:01;35.85;;;14.90;;
20637;SDS011;10478;49.004;8.470;2022-12-13T01:26:27;33.25;;;14.88;;
20637;SDS011;10478;49.004;8.470;2022-12-13T01:28:53;39.60;;;15.50;;
20637;SDS011;10478;49.004;8.470;2022-12-13T01:31:19;38.20;;;16.15;;
20637;SDS011;10478;49.004;8.470;2022-12-13T01:33:45;36.03;;;14.43;;
20637;SDS011;10478;49.004;8.470;2022-12-13T01:36:15;39.00;;;15.77;;
20637;SDS011;10478;49.004;8.470;2022-12-13T01:38:42;32.90;;;15.48;;
20637;SDS011;10478;49.004;8.470;2022-12-13T01:41:09;38.95;;;16.33;;
20637;SDS011;10478;49.004;8.470;2022-12-13T01:46:05;38.15;;;16.40;;
20637;SDS011;10478;49.004;8.470;2022-12-13T01:48:31;36.42;;;16.85;;
20637;SDS011;10478;49.004;8.470;2022-12-13T01:51:01;43.60;;;17.33;;
20637;SDS011;10478;49.004;8.470;2022-12-13T01:53:29;38.50;;;16.10;;
20637;SDS011;10478;49.004;8.470;2022-12-13T01:55:57;32.97;;;15.70;;
20637;SDS011;10478;49.004;8.470;2022-12-13T01:58:26;41.33;;;15.63;;
20637;SDS011;10478;49.004;8.470;2022-12-13T02:00:51;35.00;;;15.88;;
20637;SDS011;10478;49.004;8.470;2022-12-13T02:03:17;34.25;;;14.68;;
20637;SDS011;10478;49.004;8.470;2022-12-13T02:06:08;38.65;;;16.23;;
20637;SDS011;10478;49.004;8.470;2022-12-13T02:08:38;42.63;;;16.17;;
20637;SDS011;10478;49.004;8.470;2022-12-13T02:11:04;42.70;;;16.23;;
20637;SDS011;10478;49.004;8.470;2022-12-13T02:13:30;37.22;;;15.75;;
20637;SDS011;10478;49.004;8.470;2022-12-13T02:21:34;38.63;;;15.35;;
20637;SDS011;10478;49.004;8.470;2022-12-13T02:35:25;27.38;;;14.90;;
20637;SDS011;10478;49.004;8.470;2022-12-13T02:37:58;38.42;;;15.98;;
20637;SDS011;10478;49.004;8.470;2022-12-13T02:40:31;40.70;;;17.17;;
20637;SDS011;10478;49.004;8.470;2022-12-13T02:43:04;34.78;;;15.75;;
20637;SDS011;10478;49.004;8.470;2022-12-13T02:45:33;43.15;;;15.73;;
20637;SDS011;10478;49.004;8.470;2022-12-13T02:48:02;38.95;;;16.90;;
20637;SDS011;10478;49.004;8.470;2022-12-13T02:50:29;44.90;;;15.80;;
20637;SDS011;10478;49.004;8.470;2022-12-13T02:52:55;51.25;;;17.98;;
20637;SDS011;10478;49.004;8.470;2022-12-13T02:55:20;39.05;;;14.25;;
20637;SDS011;10478;49.004;8.470;2022-12-13T02:57:46;46.03;;;17.58;;
20637;SDS011;10478;49.004;8.470;2022-12-13T03:05:20;34.38;;;14.02;;
20637;SDS011;10478;49.004;8.470;2022-12-13T03:13:31;43.10;;;16.25;;
20637;SDS011;10478;49.004;8.470;2022-12-13T03:18:42;49.28;;;18.05;;
20637;SDS011;10478;49.004;8.470;2022-12-13T03:21:08;47.38;;;17.95;;
20637;SDS011;10478;49.004;8.470;2022-12-13T03:23:34;40.63;;;16.55;;
20637;SDS011;10478;49.004;8.470;2022-12-13T03:26:01;39.92;;;16.75;;
20637;SDS011;10478;49.004;8.470;2022-12-13T03:28:29;42.10;;;17.63;;
20637;SDS011;10478;49.004;8.470;2022-12-13T03:30:54;41.10;;;18.30;;
20637;SDS011;10478;49.004;8.470;2022-12-13T03:33:20;43.97;;;17.55;;
20637;SDS011;10478;49.004;8.470;2022-12-13T03:35:46;41.40;;;17.13;;
20637;SDS011;10478;49.004;8.470;2022-12-13T03:38:12;51.38;;;17.88;;
20637;SDS011;10478;49.004;8.470;2022-12-13T03:40:38;44.28;;;17.77;;
20637;SDS011;10478;49.004;8.470;2022-12-13T03:43:07;33.63;;;15.63;;
20637;SDS011;10478;49.004;8.470;2022-12-13T03:45:32;50.22;;;17.90;;
20637;SDS011;10478;49.004;8.470;2022-12-13T03:47:57;42.20;;;18.45;;
20637;SDS011;10478;49.004;8.470;2022-12-13T03:50:23;45.28;;;17.95;;
20637;SDS011;10478;49.004;8.470;2022-12-13T03:52:48;41.90;;;17.23;;
20637;SDS011;10478;49.004;8.470;2022-12-13T03:55:15;40.88;;;17.80;;
20637;SDS011;10478;49.004;8.470;2022-12-13T03:57:41;44.58;;;17.73;;
20637;SDS011;10478;49.004;8.470;2022-12-13T04:00:07;35.72;;;16.00;;
20637;SDS011;10478;49.004;8.470;2022-12-13T04:02:33;41.58;;;18.60;;
20637;SDS011;10478;49.004;8.470;2022-12-13T04:04:58;42.67;;;17.15;;
20637;SDS011;10478;49.004;8.470;2022-12-13T04:07:24;39.17;;;16.92;;
20637;SDS011;10478;49.004;8.470;2022-12-13T04:09:49;49.67;;;18.00;;
20637;SDS011;10478;49.004;8.470;2022-12-13T04:12:15;37.53;;;15.98;;
20637;SDS011;10478;49.004;8.470;2022-12-13T04:14:59;39.78;;;18.42;;
20637;SDS011;10478;49.004;8.470;2022-12-13T04:17:24;41.53;;;18.40;;
20637;SDS011;10478;49.004;8.470;2022-12-13T04:19:50;41.35;;;17.05;;
20637;SDS011;10478;49.004;8.470;2022-12-13T04:22:15;40.72;;;16.73;;
20637;SDS011;10478;49.004;8.470;2022-12-13T04:24:40;41.72;;;18.15;;
20637;SDS011;10478;49.004;8.470;2022-12-13T04:27:06;47.53;;;17.58;;
20637;SDS011;10478;49.004;8.470;2022-12-13T04:29:31;38.42;;;17.08;;
20637;SDS011;10478;49.004;8.470;2022-12-13T04:31:57;41.85;;;17.88;;
20637;SDS011;10478;49.004;8.470;2022-12-13T04:34:22;37.65;;;16.40;;
20637;SDS011;10478;49.004;8.470;2022-12-13T04:36:47;42.88;;;17.48;;
20637;SDS011;10478;49.004;8.470;2022-12-13T04:39:13;38.38;;;17.15;;
20637;SDS011;10478;49.004;8.470;2022-12-13T04:41:38;44.80;;;17.65;;
20637;SDS011;10478;49.004;8.470;2022-12-13T04:44:05;41.65;;;18.20;;
20637;SDS011;10478;49.004;8.470;2022-12-13T04:46:34;41.78;;;16.58;;
20637;SDS011;10478;49.004;8.470;2022-12-13T04:49:00;47.92;;;17.10;;
20637;SDS011;10478;49.004;8.470;2022-12-13T04:51:25;40.85;;;17.48;;
20637;SDS011;10478;49.004;8.470;2022-12-13T04:53:51;46.13;;;17.45;;
20637;SDS011;10478;49.004;8.470;2022-12-13T04:56:16;40.50;;;17.00;;
20637;SDS011;10478;49.004;8.470;2022-12-13T04:58:42;41.00;;;16.48;;
20637;SDS011;10478;49.004;8.470;2022-12-13T05:01:08;42.92;;;16.60;;
20637;SDS011;10478;49.004;8.470;2022-12-13T05:03:34;40.47;;;16.98;;
20637;SDS011;10478;49.004;8.470;2022-12-13T05:06:07;39.42;;;17.50;;
20637;SDS011;10478;49.004;8.470;2022-12-13T05:08:34;47.90;;;16.65;;
20637;SDS011;10478;49.004;8.470;2022-12-13T05:10:59;42.85;;;16.25;;
20637;SDS011;10478;49.004;8.470;2022-12-13T05:13:25;46.17;;;17.48;;
20637;SDS011;10478;49.004;8.470;2022-12-13T05:15:55;45.65;;;16.20;;
20637;SDS011;10478;49.004;8.470;2022-12-13T05:18:24;36.42;;;17.60;;
20637;SDS011;10478;49.004;8.470;2022-12-13T05:20:49;41.10;;;17.02;;
20637;SDS011;10478;49.004;8.470;2022-12-13T05:23:15;40.95;;;16.20;;
20637;SDS011;10478;49.004;8.470;2022-12-13T05:25:41;46.65;;;16.45;;
20637;SDS011;10478;49.004;8.470;2022-12-13T05:28:06;44.05;;;17.77;;
20637;SDS011;10478;49.004;8.470;2022-12-13T05:30:32;38.97;;;16.48;;
20637;SDS011;10478;49.004;8.470;2022-12-13T05:32:57;41.30;;;16.88;;
20637;SDS011;10478;49.004;8.470;2022-12-13T05:35:23;43.92;;;17.55;;
20637;SDS011;10478;49.004;8.470;2022-12-13T05:37:48;41.40;;;17.95;;
20637;SDS011;10478;49.004;8.470;2022-12-13T05:40:13;37.85;;;15.93;;
20637;SDS011;10478;49.004;8.470;2022-12-13T05:42:39;36.17;;;17.08;;
20637;SDS011;10478;49.004;8.470;2022-12-13T05:45:07;45.58;;;18.25;;
20637;SDS011;10478;49.004;8.470;2022-12-13T05:47:33;43.40;;;16.15;;
20637;SDS011;10478;49.004;8.470;2022-12-13T05:49:58;40.28;;;17.17;;
20637;SDS011;10478;49.004;8.470;2022-12-13T05:52:24;37.95;;;16.38;;
20637;SDS011;10478;49.004;8.470;2022-12-13T05:54:53;36.05;;;16.10;;
20637;SDS011;10478;49.004;8.470;2022-12-13T05:57:19;37.55;;;17.02;;
20637;SDS011;10478;49.004;8.470;2022-12-13T05:59:44;39.35;;;16.75;;
20637;SDS011;10478;49.004;8.470;2022-12-13T06:02:10;37.05;;;17.02;;
20637;SDS011;10478;49.004;8.470;2022-12-13T06:04:35;44.60;;;18.48;;
20637;SDS011;10478;49.004;8.470;2022-12-13T06:07:00;39.38;;;16.35;;
20637;SDS011;10478;49.004;8.470;2022-12-13T06:09:26;44.58;;;17.23;;
20637;SDS011;10478;49.004;8.470;2022-12-13T06:11:51;38.38;;;16.65;;
20637;SDS011;10478;49.004;8.470;2022-12-13T06:14:16;43.15;;;16.75;;
20637;SDS011;10478;49.004;8.470;2022-12-13T06:16:42;41.75;;;17.02;;
20637;SDS011;10478;49.004;8.470;2022-12-13T06:19:07;40.45;;;15.45;;
20637;SDS011;10478;49.004;8.470;2022-12-13T06:21:32;47.80;;;18.60;;
20637;SDS011;10478;49.004;8.470;2022-12-13T06:23:58;39.28;;;16.83;;
20637;SDS011;10478;49.004;8.470;2022-12-13T06:26:24;44.15;;;18.38;;
20637;SDS011;10478;49.004;8.470;2022-12-13T06:28:49;53.60;;;19.05;;
20637;SDS011;10478;49.004;8.470;2022-12-13T06:31:14;40.03;;;17.23;;
20637;SDS011;10478;49.004;8.470;2022-12-13T06:33:40;48.97;;;19.67;;
20637;SDS011;10478;49.004;8.470;2022-12-13T06:36:05;43.15;;;18.50;;
20637;SDS011;10478;49.004;8.470;2022-12-13T06:38:31;46.90;;;20.88;;
20637;SDS011;10478;49.004;8.470;2022-12-13T06:43:51;34.75;;;16.40;;
20637;SDS011;10478;49.004;8.470;2022-12-13T06:46:17;48.75;;;18.60;;
20637;SDS011;10478;49.004;8.470;2022-12-13T06:48:42;43.30;;;18.52;;
20637;SDS011;10478;49.004;8.470;2022-12-13T06:51:08;46.63;;;17.05;;
20637;SDS011;10478;49.004;8.470;2022-12-13T06:53:34;39.83;;;16.85;;
20637;SDS011;10478;49.004;8.470;2022-12-13T06:56:05;43.83;;;18.38;;
20637;SDS011;10478;49.004;8.470;2022-12-13T06:58:32;43.60;;;17.27;;
20637;SDS011;10478;49.004;8.470;2022-12-13T07:01:05;51.30;;;17.75;;
20637;SDS011;10478;49.004;8.470;2022-12-13T07:03:32;51.17;;;18.10;;
20637;SDS011;10478;49.004;8.470;2022-12-13T07:05:59;42.45;;;16.77;;
20637;SDS011;10478;49.004;8.470;2022-12-13T07:08:28;52.35;;;18.15;;
20637;SDS011;10478;49.004;8.470;2022-12-13T07:10:54;48.35;;;19.25;;
20637;SDS011;10478;49.004;8.470;2022-12-13T07:13:20;43.80;;;17.90;;
20637;SDS011;10478;49.004;8.470;2022-12-13T07:15:45;50.08;;;18.55;;
20637;SDS011;10478;49.004;8.470;2022-12-13T07:18:11;44.40;;;17.70;;
20637;SDS011;10478;49.004;8.470;2022-12-13T07:20:38;45.97;;;18.60;;
20637;SDS011;10478;49.004;8.470;2022-12-13T07:23:04;39.58;;;16.67;;
20637;SDS011;10478;49.004;8.470;2022-12-13T07:25:29;46.83;;;19.45;;
20637;SDS011;10478;49.004;8.470;2022-12-13T07:27:58;44.22;;;18.10;;
20637;SDS011;10478;49.004;8.470;2022-12-13T07:30:25;39.72;;;18.25;;
20637;SDS011;10478;49.004;8.470;2022-12-13T07:32:50;50.10;;;18.60;;
20637;SDS011;10478;49.004;8.470;2022-12-13T07:35:15;47.92;;;17.30;;
20637;SDS011;10478;49.004;8.470;2022-12-13T07:37:40;46.42;;;18.50;;
20637;SDS011;10478;49.004;8.470;2022-12-13T07:40:06;65.57;;;18.02;;
20637;SDS011;10478;49.004;8.470;2022-12-13T07:42:32;54.70;;;19.95;;
20637;SDS011;10478;49.004;8.470;2022-12-13T07:44:57;46.72;;;18.17;;
20637;SDS011;10478;49.004;8.470;2022-12-13T07:47:22;51.97;;;19.17;;
20637;SDS011;10478;49.004;8.470;2022-12-13T07:49:49;41.75;;;17.63;;
20637;SDS011;10478;49.004;8.470;2022-12-13T07:52:15;42.10;;;18.00;;
20637;SDS011;10478;49.004;8.470;2022-12-13T07:54:40;51.35;;;18.00;;
20637;SDS011;10478;49.004;8.470;2022-12-13T07:57:05;42.78;;;17.77;;
20637;SDS011;10478;49.004;8.470;2022-12-13T07:59:31;49.05;;;18.88;;
20637;SDS011;10478;49.004;8.470;2022-12-13T08:01:56;48.15;;;16.80;;
20637;SDS011;10478;49.004;8.470;2022-12-13T08:04:21;45.92;;;17.13;;
20637;SDS011;10478;49.004;8.470;2022-12-13T08:06:47;42.65;;;18.20;;
20637;SDS011;10478;49.004;8.470;2022-12-13T08:09:12;47.75;;;18.25;;
20637;SDS011;10478;49.004;8.470;2022-12-13T08:11:37;39.72;;;17.65;;
20637;SDS011;10478;49.004;8.470;2022-12-13T08:14:03;48.15;;;18.77;;
20637;SDS011;10478;49.004;8.470;2022-12-13T08:16:30;46.38;;;16.92;;
20637;SDS011;10478;49.004;8.470;2022-12-13T08:18:56;45.22;;;18.33;;
20637;SDS011;10478;49.004;8.470;2022-12-13T08:21:21;46.55;;;18.05;;
20637;SDS011;10478;49.004;8.470;2022-12-13T08:23:47;45.35;;;18.48;;
20637;SDS011;10478;49.004;8.470;2022-12-13T08:26:12;41.08;;;16.77;;
20637;SDS011;10478;49.004;8.470;2022-12-13T08:28:37;44.72;;;17.85;;
20637;SDS011;10478;49.004;8.470;2022-12-13T08:31:04;48.47;;;18.20;;
20637;SDS011;10478;49.004;8.470;2022-12-13T08:33:32;51.95;;;20.58;;
20637;SDS011;10478;49.004;8.470;2022-12-13T08:36:05;47.45;;;18.10;;
20637;SDS011;10478;49.004;8.470;2022-12-13T08:38:35;38.42;;;17.70;;
20637;SDS011;10478;49.004;8.470;2022-12-13T08:41:00;42.80;;;17.40;;
20637;SDS011;10478;49.004;8.470;2022-12-13T08:43:25;44.42;;;17.70;;
20637;SDS011;10478;49.004;8.470;2022-12-13T08:45:51;34.33;;;16.30;;
20637;SDS011;10478;49.004;8.470;2022-12-13T08:48:16;45.20;;;18.90;;
20637;SDS011;10478;49.004;8.470;2022-12-13T08:50:41;43.50;;;16.98;;
20637;SDS011;10478;49.004;8.470;2022-12-13T08:53:06;62.05;;;18.50;;
20637;SDS011;10478;49.004;8.470;2022-12-13T08:55:32;45.78;;;17.92;;
20637;SDS011;10478;49.004;8.470;2022-12-13T08:57:57;46.88;;;19.27;;
20637;SDS011;10478;49.004;8.470;2022-12-13T09:00:23;46.63;;;19.23;;
20637;SDS011;10478;49.004;8.470;2022-12-13T09:02:48;46.60;;;18.98;;
20637;SDS011;10478;49.004;8.470;2022-12-13T09:05:13;41.90;;;18.23;;
20637;SDS011;10478;49.004;8.470;2022-12-13T09:07:39;44.97;;;17.35;;
20637;SDS011;10478;49.004;8.470;2022-12-13T09:10:09;41.97;;;17.88;;
20637;SDS011;10478;49.004;8.470;2022-12-13T09:12:35;42.08;;;16.58;;
20637;SDS011;10478;49.004;8.470;2022-12-13T09:15:01;44.30;;;18.17;;
20637;SDS011;10478;49.004;8.470;2022-12-13T09:17:28;35.08;;;15.77;;
20637;SDS011;10478;49.004;8.470;2022-12-13T09:19:54;45.08;;;17.67;;
20637;SDS011;10478;49.004;8.470;2022-12-13T09:22:19;41.20;;;18.33;;
20637;SDS011;10478;49.004;8.470;2022-12-13T09:24:45;42.33;;;17.05;;
20637;SDS011;10478;49.004;8.470;2022-12-13T09:27:10;45.72;;;17.17;;
20637;SDS011;10478;49.004;8.470;2022-12-13T09:29:36;44.13;;;17.60;;
20637;SDS011;10478;49.004;8.470;2022-12-13T09:32:02;33.00;;;16.80;;
20637;SDS011;10478;49.004;8.470;2022-12-13T09:34:27;44.53;;;17.65;;
20637;SDS011;10478;49.004;8.470;2022-12-13T09:36:53;43.58;;;16.92;;
20637;SDS011;10478;49.004;8.470;2022-12-13T09:39:18;40.47;;;17.35;;
20637;SDS011;10478;49.004;8.470;2022-12-13T09:41:47;38.50;;;17.65;;
20637;SDS011;10478;49.004;8.470;2022-12-13T09:44:22;41.88;;;17.77;;
20637;SDS011;10478;49.004;8.470;2022-12-13T09:46:49;38.85;;;17.13;;
20637;SDS011;10478;49.004;8.470;2022-12-13T09:49:30;42.13;;;17.83;;
20637;SDS011;10478;49.004;8.470;2022-12-13T09:51:59;40.15;;;16.83;;
20637;SDS011;10478;49.004;8.470;2022-12-13T09:54:26;36.65;;;16.95;;
20637;SDS011;10478;49.004;8.470;2022-12-13T09:56:52;43.70;;;17.13;;
20637;SDS011;10478;49.004;8.470;2022-12-13T09:59:32;40.35;;;16.58;;
20637;SDS011;10478;49.004;8.470;2022-12-13T10:02:13;39.85;;;16.90;;
20637;SDS011;10478;49.004;8.470;2022-12-13T10:04:40;40.45;;;16.42;;
20637;SDS011;10478;49.004;8.470;2022-12-13T10:07:13;43.40;;;17.70;;
20637;SDS011;10478;49.004;8.470;2022-12-13T10:09:42;44.33;;;16.33;;
20637;SDS011;10478;49.004;8.470;2022-12-13T10:12:07;32.80;;;17.15;;
20637;SDS011;10478;49.004;8.470;2022-12-13T10:14:38;35.33;;;16.13;;
20637;SDS011;10478;49.004;8.470;2022-12-13T10:17:07;34.80;;;17.38;;
20637;SDS011;10478;49.004;8.470;2022-12-13T10:19:39;36.25;;;16.48;;
20637;SDS011;10478;49.004;8.470;2022-12-13T10:22:13;35.63;;;15.98;;
20637;SDS011;10478;49.004;8.470;2022-12-13T10:25:02;40.67;;;17.27;;
20637;SDS011;10478;49.004;8.470;2022-12-13T10:27:36;37.72;;;15.82;;
20637;SDS011;10478;49.004;8.470;2022-12-13T10:30:08;39.97;;;15.75;;
20637;SDS011;10478;49.004;8.470;2022-12-13T10:32:43;40.45;;;16.90;;
20637;SDS011;10478;49.004;8.470;2022-12-13T10:35:23;43.10;;;16.73;;
20637;SDS011;10478;49.004;8.470;2022-12-13T10:37:52;31.58;;;15.02;;
20637;SDS011;10478;49.004;8.470;2022-12-13T10:40:25;37.67;;;16.00;;
20637;SDS011;10478;49.004;8.470;2022-12-13T10:43:38;40.33;;;15.38;;
20637;SDS011;10478;49.004;8.470;2022-12-13T10:48:20;30.33;;;14.80;;
20637;SDS011;10478;49.004;8.470;2022-12-13T10:50:57;35.65;;;15.70;;
20637;SDS011;10478;49.004;8.470;2022-12-13T10:53:24;28.95;;;14.57;;
20637;SDS011;10478;49.004;8.470;2022-12-13T10:55:53;35.28;;;15.63;;
20637;SDS011;10478;49.004;8.470;2022-12-13T10:58:19;36.72;;;15.02;;
20637;SDS011;10478;49.004;8.470;2022-12-13T11:00:45;33.35;;;14.77;;
20637;SDS011;10478;49.004;8.470;2022-12-13T11:03:26;35.30;;;14.38;;
20637;SDS011;10478;49.004;8.470;2022-12-13T11:06:08;34.95;;;12.82;;
20637;SDS011;10478;49.004;8.470;2022-12-13T11:08:37;33.17;;;13.85;;
20637;SDS011;10478;49.004;8.470;2022-12-13T11:11:03;29.83;;;13.18;;
20637;SDS011;10478;49.004;8.470;2022-12-13T11:13:41;26.77;;;11.95;;
20637;SDS011;10478;49.004;8.470;2022-12-13T11:16:31;29.83;;;13.75;;
20637;SDS011;10478;49.004;8.470;2022-12-13T11:18:59;34.53;;;14.32;;
20637;SDS011;10478;49.004;8.470;2022-12-13T11:21:31;24.17;;;11.82;;
20637;SDS011;10478;49.004;8.470;2022-12-13T11:24:02;24.80;;;12.23;;
20637;SDS011;10478;49.004;8.470;2022-12-13T11:26:28;31.48;;;13.20;;
20637;SDS011;10478;49.004;8.470;2022-12-13T11:28:59;25.73;;;12.10;;
20637;SDS011;10478;49.004;8.470;2022-12-13T11:37:16;29.92;;;11.85;;
20637;SDS011;10478;49.004;8.470;2022-12-13T11:39:49;33.00;;;12.00;;
20637;SDS011;10478;49.004;8.470;2022-12-13T11:50:28;27.75;;;13.07;;
20637;SDS011;10478;49.004;8.470;2022-12-13T11:56:30;26.48;;;12.55;;
20637;SDS011;10478;49.004;8.470;2022-12-13T12:01:41;30.33;;;12.73;;
20637;SDS011;10478;49.004;8.470;2022-12-13T12:04:13;24.58;;;12.05;;
20637;SDS011;10478;49.004;8.470;2022-12-13T12:07:01;27.70;;;12.32;;
20637;SDS011;10478;49.004;8.470;2022-12-13T12:09:30;28.23;;;12.15;;
20637;SDS011;10478;49.004;8.470;2022-12-13T12:12:02;29.98;;;12.77;;
20637;SDS011;10478;49.004;8.470;2022-12-13T12:14:38;27.95;;;11.13;;
20637;SDS011;10478;49.004;8.470;2022-12-13T12:17:08;28.05;;;11.05;;
20637;SDS011;10478;49.004;8.470;2022-12-13T12:19:37;26.90;;;12.23;;
20637;SDS011;10478;49.004;8.470;2022-12-13T12:24:56;26.33;;;12.00;;
20637;SDS011;10478;49.004;8.470;2022-12-13T12:30:14;24.33;;;12.15;;
20637;SDS011;10478;49.004;8.470;2022-12-13T12:35:18;24.70;;;11.52;;
20637;SDS011;10478;49.004;8.470;2022-12-13T12:43:31;21.40;;;10.18;;
20637;SDS011;10478;49.004;8.470;2022-12-13T12:46:02;19.70;;;9.75;;
20637;SDS011;10478;49.004;8.470;2022-12-13T12:51:20;29.90;;;10.98;;
20637;SDS011;10478;49.004;8.470;2022-12-13T12:53:53;26.50;;;11.57;;
20637;SDS011;10478;49.004;8.470;2022-12-13T12:56:34;21.40;;;10.35;;
20637;SDS011;10478;49.004;8.470;2022-12-13T12:59:17;21.60;;;10.63;;
20637;SDS011;10478;49.004;8.470;2022-12-13T13:04:36;24.70;;;10.93;;
20637;SDS011;10478;49.004;8.470;2022-12-13T13:07:11;22.25;;;11.00;;
20637;SDS011;10478;49.004;8.470;2022-12-13T13:09:44;23.70;;;9.68;;
20637;SDS011;10478;49.004;8.470;2022-12-13T13:12:10;27.52;;;11.63;;
20637;SDS011;10478;49.004;8.470;2022-12-13T13:14:36;21.98;;;9.82;;
20637;SDS011;10478;49.004;8.470;2022-12-13T13:19:41;28.08;;;11.82;;
20637;SDS011;10478;49.004;8.470;2022-12-13T13:27:35;28.65;;;10.45;;
20637;SDS011;10478;49.004;8.470;2022-12-13T13:30:06;24.17;;;11.30;;
20637;SDS011;10478;49.004;8.470;2022-12-13T13:32:40;25.45;;;10.75;;
20637;SDS011;10478;49.004;8.470;2022-12-13T13:37:57;23.85;;;11.20;;
20637;SDS011;10478;49.004;8.470;2022-12-13T13:40:25;33.33;;;13.43;;
20637;SDS011;10478;49.004;8.470;2022-12-13T13:54:33;26.35;;;12.50;;
20637;SDS011;10478;49.004;8.470;2022-12-13T14:00:12;33.17;;;14.52;;
20637;SDS011;10478;49.004;8.470;2022-12-13T14:30:28;35.40;;;12.10;;
20637;SDS011;10478;49.004;8.470;2022-12-13T14:32:53;27.55;;;12.27;;
20637;SDS011;10478;49.004;8.470;2022-12-13T14:35:26;28.50;;;12.20;;
20637;SDS011;10478;49.004;8.470;2022-12-13T14:37:57;27.85;;;12.02;;
20637;SDS011;10478;49.004;8.470;2022-12-13T14:40:25;34.75;;;14.60;;
20637;SDS011;10478;49.004;8.470;2022-12-13T14:42:53;30.35;;;13.73;;
20637;SDS011;10478;49.004;8.470;2022-12-13T14:45:22;35.90;;;13.80;;
20637;SDS011;10478;49.004;8.470;2022-12-13T14:47:49;30.50;;;12.90;;
20637;SDS011;10478;49.004;8.470;2022-12-13T14:50:16;32.88;;;13.35;;
20637;SDS011;10478;49.004;8.470;2022-12-13T14:52:42;32.65;;;13.35;;
20637;SDS011;10478;49.004;8.470;2022-12-13T14:57:54;29.27;;;13.38;;
20637;SDS011;10478;49.004;8.470;2022-12-13T15:00:33;28.58;;;13.02;;
20637;SDS011;10478;49.004;8.470;2022-12-13T15:03:00;29.05;;;12.75;;
20637;SDS011;10478;49.004;8.470;2022-12-13T15:05:29;29.00;;;11.10;;
20637;SDS011;10478;49.004;8.470;2022-12-13T15:07:56;30.45;;;13.88;;
20637;SDS011;10478;49.004;8.470;2022-12-13T15:10:42;26.85;;;11.52;;
20637;SDS011;10478;49.004;8.470;2022-12-13T15:15:55;28.73;;;13.02;;
20637;SDS011;10478;49.004;8.470;2022-12-13T15:18:24;32.78;;;12.27;;
20637;SDS011;10478;49.004;8.470;2022-12-13T15:20:51;33.08;;;13.85;;
20637;SDS011;10478;49.004;8.470;2022-12-13T15:23:25;32.78;;;14.02;;
20637;SDS011;10478;49.004;8.470;2022-12-13T15:28:20;30.17;;;13.13;;
20637;SDS011;10478;49.004;8.470;2022-12-13T15:30:46;32.40;;;13.27;;
20637;SDS011;10478;49.004;8.470;2022-12-13T15:33:17;28.25;;;12.55;;
20637;SDS011;10478;49.004;8.470;2022-12-13T15:35:44;35.40;;;13.13;;
20637;SDS011;10478;49.004;8.470;2022-12-13T15:38:16;30.20;;;12.98;;
20637;SDS011;10478;49.004;8.470;2022-12-13T15:40:47;32.25;;;13.13;;
20637;SDS011;10478;49.004;8.470;2022-12-13T15:43:14;32.30;;;12.77;;
20637;SDS011;10478;49.004;8.470;2022-12-13T15:45:42;32.00;;;14.48;;
20637;SDS011;10478;49.004;8.470;2022-12-13T15:48:30;39.20;;;14.40;;
20637;SDS011;10478;49.004;8.470;2022-12-13T15:51:08;36.28;;;14.52;;
20637;SDS011;10478;49.004;8.470;2022-12-13T15:53:33;26.08;;;13.32;;
20637;SDS011;10478;49.004;8.470;2022-12-13T15:55:59;29.48;;;11.95;;
20637;SDS011;10478;49.004;8.470;2022-12-13T15:58:26;25.95;;;12.75;;
20637;SDS011;10478;49.004;8.470;2022-12-13T16:29:55;36.20;;;12.13;;
20637;SDS011;10478;49.004;8.470;2022-12-13T16:32:21;30.45;;;12.82;;
20637;SDS011;10478;49.004;8.470;2022-12-13T16:34:46;26.85;;;11.98;;
20637;SDS011;10478;49.004;8.470;2022-12-13T16:37:12;35.47;;;13.40;;
20637;SDS011;10478;49.004;8.470;2022-12-13T16:39:37;27.75;;;12.20;;
20637;SDS011;10478;49.004;8.470;2022-12-13T16:42:02;29.58;;;11.18;;
20637;SDS011;10478;49.004;8.470;2022-12-13T16:44:32;25.20;;;12.10;;
20637;SDS011;10478;49.004;8.470;2022-12-13T16:46:58;25.52;;;12.13;;
20637;SDS011;10478;49.004;8.470;2022-12-13T16:49:25;30.20;;;13.38;;
20637;SDS011;10478;49.004;8.470;2022-12-13T16:51:52;25.10;;;12.18;;
20637;SDS011;10478;49.004;8.470;2022-12-13T16:54:18;23.25;;;11.20;;
20637;SDS011;10478;49.004;8.470;2022-12-13T16:56:45;25.13;;;11.55;;
20637;SDS011;10478;49.004;8.470;2022-12-13T16:59:14;28.52;;;12.68;;
20637;SDS011;10478;49.004;8.470;2022-12-13T17:01:41;24.30;;;10.73;;
20637;SDS011;10478;49.004;8.470;2022-12-13T17:04:11;32.05;;;12.95;;
20637;SDS011;10478;49.004;8.470;2022-12-13T17:06:37;24.73;;;10.63;;
20637;SDS011;10478;49.004;8.470;2022-12-13T17:09:03;28.17;;;12.25;;
20637;SDS011;10478;49.004;8.470;2022-12-13T17:11:30;25.95;;;11.50;;
20637;SDS011;10478;49.004;8.470;2022-12-13T17:13:56;30.10;;;12.32;;